Weather at Valjevo Divci Airfield

Public forecast

Using degrees Celsius for public forecast. Weather courtesy of forecast.io.

Closest aviation weather report (METAR) to Valjevo Divci Airfield

Closest report is Belgrade Nikola Tesla Airport, 33.6 nm (62.2 km) NNE.

2024/06/14 15:30 (retrieved 11 minutes ago)

LYBE 141530Z 32009KT 270V360 CAVOK 24/08 Q1016 NOSIG

Closest aviation forecast (TAF) to Valjevo Divci Airfield

Closest forecast is Belgrade Nikola Tesla Airport, 33.6 nm (62.2 km) NNE.

2024/06/14 12:21 (retrieved 3 hours ago)

TAF LYBE 141100Z 1412/1512 31012KT CAVOK TX26/1412Z TN13/1503Z BECMG 1416/1418 25005KT TEMPO 1502/1505 3000 BR